Time;durP1;ratioP1;P1;durP2;ratioP2;P2;SDS_P1;SDS_P2;PMS_P1;PMS_P2;Temp;Humidity;BMP_temperature;BMP_pressure;BME280_temperature;BME280_humidity;BME280_pressure;Samples;Min_cycle;Max_cycle;Signal;HPM_P1;HPM_P2
2022/06/22 00:02:07;;;;;;;6.68;3.15;;;17.30;99.90;;;;;;4975574;28;20174;-81
2022/06/22 00:04:55;;;;;;;8.80;2.70;;;17.50;99.90;;;;;;4976782;28;20521;-81
2022/06/22 00:07:23;;;;;;;4.90;3.13;;;17.30;99.90;;;;;;4976370;28;20240;-81
2022/06/22 00:09:54;;;;;;;9.43;3.83;;;17.20;99.90;;;;;;4976551;28;20193;-80
2022/06/22 00:12:30;;;;;;;4.38;3.40;;;17.10;99.90;;;;;;4976587;28;20644;-80
2022/06/22 00:14:58;;;;;;;6.15;3.33;;;17.00;99.90;;;;;;4976389;28;20169;-81
2022/06/22 00:17:38;;;;;;;5.28;2.97;;;17.10;99.90;;;;;;4976281;28;20197;-80
2022/06/22 00:20:23;;;;;;;5.55;3.05;;;16.90;99.90;;;;;;4976271;28;20162;-81
2022/06/22 00:22:52;;;;;;;11.73;3.42;;;16.90;99.90;;;;;;4976121;28;20198;-81
2022/06/22 00:25:22;;;;;;;10.00;2.97;;;17.00;99.90;;;;;;4975045;28;20185;-81
2022/06/22 00:27:48;;;;;;;3.20;2.33;;;16.80;99.90;;;;;;4976397;28;20190;-80
2022/06/22 00:30:30;;;;;;;8.60;2.72;;;16.60;99.90;;;;;;4975304;28;20308;-81
2022/06/22 00:32:59;;;;;;;5.90;2.75;;;16.60;99.90;;;;;;4976210;28;20178;-81
2022/06/22 00:36:12;;;;;;;8.80;2.85;;;16.60;99.90;;;;;;4976202;28;20279;-81
2022/06/22 00:38:38;;;;;;;4.30;2.88;;;16.50;99.90;;;;;;4981189;28;20240;-81
2022/06/22 00:41:21;;;;;;;9.23;2.90;;;16.50;99.90;;;;;;5000315;28;20176;-81
2022/06/22 00:43:47;;;;;;;4.22;3.00;;;16.60;99.90;;;;;;4998397;28;20154;-80
2022/06/22 00:46:19;;;;;;;6.53;3.42;;;16.60;99.90;;;;;;4991470;28;20193;-80
2022/06/22 00:48:47;;;;;;;8.50;3.15;;;16.80;99.90;;;;;;4976832;28;20185;-80
2022/06/22 00:51:21;;;;;;;3.95;3.20;;;16.80;99.90;;;;;;4974907;28;20214;-80
2022/06/22 00:53:55;;;;;;;7.57;3.13;;;16.90;99.90;;;;;;4975952;28;20162;-81
2022/06/22 00:56:31;;;;;;;4.07;3.67;;;16.90;99.90;;;;;;4974855;28;20177;-80
2022/06/22 00:59:10;;;;;;;5.35;3.85;;;16.70;99.90;;;;;;4975733;28;20240;-80
2022/06/22 01:01:48;;;;;;;4.60;3.55;;;16.70;99.90;;;;;;4975632;28;20178;-80
2022/06/22 01:04:26;;;;;;;7.03;3.75;;;16.60;99.90;;;;;;4973927;28;20265;-81
2022/06/22 01:06:57;;;;;;;8.52;3.58;;;16.40;99.90;;;;;;4990390;28;20174;-80
2022/06/22 01:09:43;;;;;;;5.82;3.50;;;16.50;99.90;;;;;;4975362;28;20170;-81
2022/06/22 01:12:26;;;;;;;13.13;3.80;;;16.50;99.90;;;;;;4975526;28;20273;-80
2022/06/22 01:15:05;;;;;;;6.30;3.40;;;16.50;99.90;;;;;;4990915;28;20196;-80
2022/06/22 01:17:50;;;;;;;5.70;3.30;;;16.40;99.90;;;;;;4974998;28;20193;-80
2022/06/22 01:20:37;;;;;;;7.85;3.20;;;16.40;99.90;;;;;;4990619;28;20192;-80
2022/06/22 01:23:21;;;;;;;4.72;3.67;;;16.60;99.90;;;;;;4990193;28;20260;-80
2022/06/22 01:26:24;;;;;;;7.32;3.85;;;16.60;99.90;;;;;;4974911;28;20178;-80
2022/06/22 01:29:07;;;;;;;23.40;4.47;;;16.50;99.90;;;;;;4974676;28;20713;-81
2022/06/22 01:31:34;;;;;;;7.38;4.18;;;16.50;99.90;;;;;;4973839;28;20312;-81
2022/06/22 01:34:01;;;;;;;5.53;3.88;;;16.40;99.90;;;;;;4989756;28;20261;-80
2022/06/22 01:36:34;;;;;;;6.90;4.30;;;16.40;99.90;;;;;;4975128;28;20201;-80
2022/06/22 01:39:02;;;;;;;10.73;4.20;;;16.50;99.90;;;;;;4975162;28;20556;-81
2022/06/22 01:41:49;;;;;;;5.55;3.55;;;16.50;99.90;;;;;;4974750;28;20689;-80
2022/06/22 01:44:32;;;;;;;12.68;3.47;;;16.40;99.90;;;;;;4989446;28;20233;-80
2022/06/22 01:47:23;;;;;;;3.97;3.35;;;16.30;99.90;;;;;;4973428;28;20272;-81
2022/06/22 01:49:57;;;;;;;6.97;3.65;;;16.30;99.90;;;;;;4974518;28;20255;-81
2022/06/22 01:52:52;;;;;;;5.97;3.60;;;16.20;99.90;;;;;;4973566;28;20606;-81
2022/06/22 01:55:48;;;;;;;4.82;4.38;;;16.30;99.90;;;;;;4973049;28;20170;-80
2022/06/22 01:58:14;;;;;;;7.47;4.32;;;16.10;99.90;;;;;;4974949;28;20200;-80
2022/06/22 02:00:46;;;;;;;6.63;4.15;;;16.10;99.90;;;;;;4975444;28;20165;-80
2022/06/22 02:03:24;;;;;;;6.43;4.80;;;16.00;99.90;;;;;;4974503;28;20165;-81
2022/06/22 02:05:53;;;;;;;8.88;4.43;;;15.90;99.90;;;;;;4973353;28;20186;-80
2022/06/22 02:08:26;;;;;;;5.90;4.00;;;16.10;99.90;;;;;;4974719;28;20213;-80
2022/06/22 02:10:54;;;;;;;6.50;4.43;;;15.90;99.90;;;;;;4974511;28;20212;-81
2022/06/22 02:13:36;;;;;;;6.63;5.03;;;15.80;99.90;;;;;;4989651;28;20184;-80
2022/06/22 02:16:13;;;;;;;7.82;4.22;;;15.70;99.90;;;;;;4975614;28;20201;-80
2022/06/22 02:19:05;;;;;;;5.82;4.32;;;15.60;99.90;;;;;;4973303;28;20560;-80
2022/06/22 02:21:39;;;;;;;12.75;4.75;;;15.60;99.90;;;;;;4974789;28;20210;-83
2022/06/22 02:24:13;;;;;;;5.50;4.57;;;15.50;99.90;;;;;;4974208;28;20209;-80
2022/06/22 02:26:55;;;;;;;8.52;5.10;;;15.50;99.90;;;;;;4972773;28;20170;-79
2022/06/22 02:29:25;;;;;;;8.32;4.75;;;15.60;99.90;;;;;;4973775;28;20180;-80
2022/06/22 02:31:54;;;;;;;7.13;4.53;;;15.70;99.90;;;;;;4972769;28;20210;-81
2022/06/22 02:34:19;;;;;;;8.25;4.72;;;15.70;99.90;;;;;;4974159;28;20170;-80
2022/06/22 02:36:48;;;;;;;11.65;4.85;;;15.50;99.90;;;;;;4973022;28;20224;-80
2022/06/22 02:39:16;;;;;;;15.85;6.07;;;15.60;99.90;;;;;;4974142;28;20161;-80
2022/06/22 02:44:33;;;;;;;7.78;5.13;;;15.70;99.90;;;;;;4974367;28;20200;-80
2022/06/22 02:47:19;;;;;;;12.15;6.40;;;15.80;99.90;;;;;;4974096;28;20627;-80
2022/06/22 02:49:55;;;;;;;12.43;5.88;;;15.70;99.90;;;;;;4973152;28;20209;-80
2022/06/22 02:52:23;;;;;;;5.80;5.30;;;15.80;99.90;;;;;;4972522;28;20177;-81
2022/06/22 02:54:57;;;;;;;11.10;6.18;;;15.80;99.90;;;;;;4974659;28;20177;-81
2022/06/22 02:57:43;;;;;;;8.50;5.63;;;15.60;99.90;;;;;;4980551;28;20212;-80
2022/06/22 03:00:09;;;;;;;8.18;6.00;;;15.50;99.90;;;;;;4989129;28;20174;-80
2022/06/22 03:02:36;;;;;;;6.40;4.95;;;15.50;99.90;;;;;;4975404;28;20231;-80
2022/06/22 03:05:05;;;;;;;11.60;6.32;;;15.60;99.90;;;;;;4980662;28;20189;-80
2022/06/22 03:07:34;;;;;;;14.13;5.82;;;15.60;99.90;;;;;;4980190;28;20277;-80
2022/06/22 03:10:02;;;;;;;12.65;5.43;;;15.90;99.90;;;;;;4980107;28;20326;-80
2022/06/22 03:12:28;;;;;;;6.50;5.45;;;15.80;99.90;;;;;;4980768;28;20221;-81
2022/06/22 03:15:01;;;;;;;8.48;5.82;;;15.80;99.90;;;;;;4986890;28;20174;-81
2022/06/22 03:17:34;;;;;;;11.57;6.03;;;15.90;99.90;;;;;;4995955;28;20201;-81
2022/06/22 03:20:16;;;;;;;14.35;5.88;;;15.80;99.90;;;;;;5005290;28;20161;-81
2022/06/22 03:22:47;;;;;;;8.82;5.63;;;15.90;99.90;;;;;;4981805;28;20165;-80
2022/06/22 03:25:18;;;;;;;6.43;5.85;;;15.80;99.90;;;;;;4979055;28;20169;-81
2022/06/22 03:27:49;;;;;;;9.27;5.75;;;15.60;99.90;;;;;;4994961;28;20260;-80
2022/06/22 03:30:22;;;;;;;8.95;5.78;;;15.50;99.90;;;;;;4979827;28;20256;-81
2022/06/22 03:33:11;;;;;;;8.20;6.50;;;15.50;99.90;;;;;;4981951;28;20204;-80
2022/06/22 03:35:47;;;;;;;9.80;6.30;;;15.60;99.90;;;;;;4980894;28;20198;-81
2022/06/22 03:38:22;;;;;;;11.68;6.53;;;15.60;99.90;;;;;;4979576;28;20209;-80
2022/06/22 03:40:55;;;;;;;9.95;6.00;;;15.80;99.90;;;;;;4980788;28;20168;-80
2022/06/22 03:43:30;;;;;;;13.75;6.75;;;15.90;99.90;;;;;;4988330;28;20224;-80
2022/06/22 03:46:08;;;;;;;20.48;5.65;;;16.00;99.90;;;;;;4990292;28;20720;-80
2022/06/22 03:48:42;;;;;;;9.45;6.05;;;15.90;99.90;;;;;;4990729;28;20221;-80
2022/06/22 03:51:28;;;;;;;13.02;6.70;;;15.90;99.90;;;;;;4988211;28;20359;-81
2022/06/22 03:54:04;;;;;;;11.73;6.43;;;16.00;99.90;;;;;;4989156;28;20170;-81
2022/06/22 03:56:33;;;;;;;7.18;6.47;;;15.90;99.90;;;;;;4989054;28;20174;-81
2022/06/22 03:59:01;;;;;;;11.15;6.57;;;15.70;99.90;;;;;;4994714;28;20174;-81
2022/06/22 04:01:27;;;;;;;14.52;5.45;;;15.70;99.90;;;;;;4997708;28;20170;-81
2022/06/22 04:03:55;;;;;;;14.13;6.05;;;15.80;99.90;;;;;;4999063;28;20220;-80
2022/06/22 04:06:26;;;;;;;8.07;5.60;;;16.00;99.90;;;;;;4998860;28;20170;-81
2022/06/22 04:08:52;;;;;;;10.88;5.72;;;16.20;99.90;;;;;;5001019;28;20329;-80
2022/06/22 04:11:31;;;;;;;7.40;5.57;;;16.40;99.90;;;;;;5000598;28;20201;-80
2022/06/22 04:14:12;;;;;;;13.05;5.93;;;16.60;99.90;;;;;;4997727;28;20154;-81
2022/06/22 04:16:41;;;;;;;16.63;6.07;;;16.70;99.90;;;;;;4979172;28;20173;-81
2022/06/22 04:19:19;;;;;;;17.42;6.45;;;16.70;99.90;;;;;;4976251;28;20189;-80
2022/06/22 04:21:50;;;;;;;13.60;6.53;;;16.50;99.90;;;;;;4975224;28;20316;-80
2022/06/22 04:24:33;;;;;;;20.77;5.97;;;16.60;99.90;;;;;;4976598;28;20173;-80
2022/06/22 04:27:01;;;;;;;7.13;6.28;;;16.60;99.90;;;;;;4976697;28;20268;-80
2022/06/22 04:29:33;;;;;;;7.93;5.80;;;16.60;99.90;;;;;;4976674;28;20178;-80
2022/06/22 04:32:06;;;;;;;14.15;6.60;;;16.40;99.90;;;;;;4991214;28;20209;-80
2022/06/22 04:34:39;;;;;;;7.18;6.45;;;16.50;99.90;;;;;;4976426;28;20166;-81
2022/06/22 04:37:22;;;;;;;14.55;6.60;;;16.50;99.90;;;;;;4975151;28;20254;-81
2022/06/22 04:39:52;;;;;;;20.63;7.28;;;16.60;99.90;;;;;;4976049;28;20169;-81
2022/06/22 04:42:18;;;;;;;10.82;7.22;;;16.80;99.90;;;;;;4976376;28;20166;-80
2022/06/22 04:44:48;;;;;;;29.42;7.95;;;16.60;99.90;;;;;;4975104;28;20626;-80
2022/06/22 04:47:19;;;;;;;13.73;6.95;;;16.70;99.90;;;;;;4974866;28;20204;-82
2022/06/22 04:50:05;;;;;;;20.52;6.80;;;16.70;99.90;;;;;;4974784;28;20170;-81
2022/06/22 04:52:37;;;;;;;17.85;7.28;;;16.60;99.90;;;;;;4976252;28;20593;-81
2022/06/22 04:55:05;;;;;;;10.50;8.02;;;16.40;99.90;;;;;;4976132;28;20167;-81
2022/06/22 04:57:35;;;;;;;23.13;7.78;;;16.40;99.90;;;;;;4975814;28;20198;-79
2022/06/22 05:00:13;;;;;;;11.25;7.90;;;16.50;99.90;;;;;;4975942;28;20256;-80
2022/06/22 05:02:41;;;;;;;13.77;7.30;;;16.40;99.90;;;;;;4974557;28;20166;-80
2022/06/22 05:05:21;;;;;;;15.82;7.43;;;16.40;99.90;;;;;;4974603;28;20166;-82
2022/06/22 05:07:59;;;;;;;19.10;7.47;;;16.40;99.90;;;;;;4975839;28;20197;-78
2022/06/22 05:10:42;;;;;;;9.90;7.68;;;16.50;99.90;;;;;;4975778;28;20216;-83
2022/06/22 05:13:25;;;;;;;16.65;7.97;;;16.70;99.90;;;;;;4975743;28;21127;-79
2022/06/22 05:15:54;;;;;;;14.88;8.48;;;16.70;99.90;;;;;;4974411;28;20185;-78
2022/06/22 05:18:30;;;;;;;17.73;7.72;;;16.90;99.90;;;;;;4975400;28;20668;-80
2022/06/22 05:21:05;;;;;;;12.38;7.20;;;16.90;99.90;;;;;;4976021;28;20165;-78
2022/06/22 05:23:32;;;;;;;16.88;8.40;;;16.70;99.90;;;;;;4975835;28;20197;-78
2022/06/22 05:26:01;;;;;;;17.33;7.90;;;16.60;99.90;;;;;;4973435;28;20170;-78
2022/06/22 05:28:37;;;;;;;22.13;8.27;;;16.80;99.90;;;;;;4975146;28;20669;-79
2022/06/22 05:31:08;;;;;;;14.10;8.75;;;16.70;99.90;;;;;;4975038;28;20213;-78
2022/06/22 05:33:36;;;;;;;20.13;8.52;;;16.80;99.90;;;;;;4977669;28;20177;-79
2022/06/22 05:36:08;;;;;;;12.52;9.23;;;17.00;99.90;;;;;;4975261;28;20180;-82
2022/06/22 05:38:37;;;;;;;12.73;8.15;;;17.10;99.90;;;;;;4975627;28;20673;-79
2022/06/22 05:41:04;;;;;;;10.23;8.07;;;17.10;99.90;;;;;;4975663;28;20166;-78
2022/06/22 05:43:32;;;;;;;22.13;7.97;;;17.10;99.90;;;;;;4975181;28;20721;-80
2022/06/22 05:46:02;;;;;;;16.48;9.27;;;17.20;99.90;;;;;;4975290;28;20221;-79
2022/06/22 05:48:33;;;;;;;17.13;9.48;;;17.10;99.90;;;;;;4976369;28;20217;-78
2022/06/22 05:51:03;;;;;;;12.70;8.90;;;17.20;99.90;;;;;;4979764;28;20229;-78
2022/06/22 05:53:40;;;;;;;50.38;35.67;;;17.30;99.90;;;;;;4995595;28;20203;-78
2022/06/22 05:56:15;;;;;;;23.27;9.88;;;17.50;99.90;;;;;;4985933;28;20184;-80
2022/06/22 05:59:06;;;;;;;12.70;9.10;;;17.60;99.90;;;;;;4975603;28;20184;-79
2022/06/22 06:01:40;;;;;;;14.40;8.55;;;17.50;99.90;;;;;;4982870;28;20174;-80
2022/06/22 06:04:34;;;;;;;9.48;8.25;;;17.70;99.90;;;;;;4974979;28;20242;-83
2022/06/22 06:07:06;;;;;;;9.45;7.75;;;17.90;99.90;;;;;;4974924;28;20174;-81
2022/06/22 06:09:34;;;;;;;11.30;7.95;;;17.80;99.90;;;;;;4975518;28;20173;-87
2022/06/22 06:12:13;;;;;;;19.65;9.95;;;17.90;99.90;;;;;;4974040;28;20670;-87
2022/06/22 06:14:43;;;;;;;9.82;7.85;;;18.30;99.90;;;;;;4975298;28;20166;-79
2022/06/22 06:17:15;;;;;;;11.93;8.32;;;18.40;99.90;;;;;;4975297;28;20229;-79
2022/06/22 06:19:44;;;;;;;21.15;8.60;;;18.30;99.90;;;;;;4974968;28;20557;-82
2022/06/22 06:22:11;;;;;;;8.38;7.63;;;18.20;99.90;;;;;;4975031;28;20182;-80
2022/06/22 06:27:46;;;;;;;24.38;8.43;;;18.30;99.90;;;;;;4974118;28;20212;-79
2022/06/22 06:30:26;;;;;;;9.73;8.20;;;18.60;99.90;;;;;;4973784;28;20677;-86
2022/06/22 06:33:01;;;;;;;22.58;7.45;;;18.90;99.90;;;;;;4974586;28;20174;-80
2022/06/22 06:35:29;;;;;;;12.32;6.75;;;19.10;99.90;;;;;;4974202;28;20208;-84
2022/06/22 06:38:23;;;;;;;11.85;7.22;;;19.20;99.90;;;;;;4974226;28;20293;-80
2022/06/22 06:41:01;;;;;;;15.52;7.35;;;18.80;99.90;;;;;;4974611;28;20180;-85
2022/06/22 06:43:49;;;;;;;14.30;7.50;;;18.90;99.90;;;;;;4980396;28;20201;-81
2022/06/22 06:46:38;;;;;;;10.00;6.90;;;19.10;99.90;;;;;;4984108;28;20193;-80
2022/06/22 06:49:10;;;;;;;9.95;6.65;;;19.40;99.90;;;;;;4985739;28;20285;-87
2022/06/22 06:51:39;;;;;;;28.50;7.35;;;19.70;99.90;;;;;;4998852;28;20213;-82
2022/06/22 06:54:16;;;;;;;37.63;7.88;;;20.10;99.90;;;;;;4974483;28;20212;-80
2022/06/22 06:57:19;;;;;;;15.32;6.85;;;20.30;99.90;;;;;;4972810;28;20180;-81
2022/06/22 06:59:51;;;;;;;10.00;5.85;;;20.70;99.90;;;;;;4975135;28;20182;-80
2022/06/22 07:02:37;;;;;;;8.65;5.45;;;21.20;99.90;;;;;;4974807;28;20181;-83
2022/06/22 07:05:09;;;;;;;119.80;14.15;;;21.70;99.90;;;;;;4976248;28;20169;-84
2022/06/22 07:08:06;;;;;;;7.95;5.70;;;22.00;99.90;;;;;;4989987;28;20302;-81
2022/06/22 07:10:45;;;;;;;12.00;5.38;;;22.40;99.90;;;;;;4987204;28;20212;-83
2022/06/22 07:13:38;;;;;;;7.53;4.88;;;23.00;99.90;;;;;;4999320;28;20185;-82
2022/06/22 07:16:14;;;;;;;22.60;5.68;;;22.50;99.90;;;;;;4975527;28;20170;-81
2022/06/22 07:18:44;;;;;;;15.60;5.78;;;22.60;99.90;;;;;;4974097;28;20548;-79
2022/06/22 07:21:22;;;;;;;25.52;7.00;;;22.40;99.90;;;;;;4973779;28;20158;-82
2022/06/22 07:24:01;;;;;;;33.35;8.55;;;22.20;99.90;;;;;;4974060;28;20173;-81
2022/06/22 07:26:44;;;;;;;9.25;5.22;;;22.30;99.90;;;;;;4972842;28;20173;-80
2022/06/22 07:29:42;;;;;;;12.07;6.30;;;22.10;99.90;;;;;;4974150;28;20236;-82
2022/06/22 07:32:21;;;;;;;21.45;7.70;;;22.00;99.90;;;;;;4973411;28;20197;-80
2022/06/22 07:34:56;;;;;;;22.05;7.50;;;22.50;99.90;;;;;;4972788;28;20188;-89
2022/06/22 07:37:33;;;;;;;16.85;5.60;;;23.20;99.90;;;;;;4973548;28;20665;-87
2022/06/22 07:40:17;;;;;;;48.85;7.55;;;23.70;99.90;;;;;;4972340;28;20181;-82
2022/06/22 07:42:48;;;;;;;39.47;7.90;;;24.30;99.90;;;;;;4972726;28;20170;-83
2022/06/22 07:45:16;;;;;;;11.20;5.82;;;24.50;99.90;;;;;;4973498;28;20197;-84
2022/06/22 07:48:02;;;;;;;50.05;9.38;;;24.50;99.90;;;;;;4974768;28;20193;-81
2022/06/22 07:50:33;;;;;;;14.82;5.38;;;24.60;99.90;;;;;;4981275;28;20198;-81
2022/06/22 07:53:08;;;;;;;9.40;5.32;;;24.90;99.90;;;;;;4979019;28;20174;-81
2022/06/22 07:55:44;;;;;;;12.88;5.75;;;24.50;99.90;;;;;;4979859;28;20174;-81
2022/06/22 07:58:32;;;;;;;14.55;6.28;;;24.30;99.90;;;;;;4985584;28;20224;-80
2022/06/22 08:01:03;;;;;;;10.73;5.45;;;23.50;99.90;;;;;;4980171;28;20261;-78
2022/06/22 08:03:39;;;;;;;10.98;6.05;;;23.00;99.90;;;;;;4977519;28;20188;-79
2022/06/22 08:06:10;;;;;;;11.60;5.70;;;22.60;99.90;;;;;;4978186;28;20280;-89
2022/06/22 08:08:45;;;;;;;10.90;5.53;;;22.30;99.90;;;;;;4979646;28;20193;-82
2022/06/22 08:11:35;;;;;;;11.27;5.40;;;22.30;99.90;;;;;;4976600;28;20260;-89
2022/06/22 08:14:04;;;;;;;11.57;5.70;;;22.40;99.90;;;;;;4977431;28;20166;-81
2022/06/22 08:16:38;;;;;;;12.55;5.30;;;22.30;99.90;;;;;;4975894;28;20590;-85
2022/06/22 08:19:04;;;;;;;16.38;5.60;;;22.30;99.90;;;;;;4977692;28;20178;-87
2022/06/22 08:21:31;;;;;;;36.75;6.95;;;22.50;99.90;;;;;;4976293;28;20273;-85
2022/06/22 08:23:58;;;;;;;75.43;12.52;;;22.50;99.90;;;;;;5007405;28;20201;-81
2022/06/22 08:26:29;;;;;;;14.57;5.70;;;22.50;99.90;;;;;;4997949;28;20184;-83
2022/06/22 08:28:56;;;;;;;8.52;4.63;;;22.40;99.90;;;;;;4992618;28;20193;-88
2022/06/22 08:31:25;;;;;;;75.75;7.65;;;22.30;99.90;;;;;;4976215;28;20213;-81
2022/06/22 08:34:03;;;;;;;9.20;4.80;;;22.30;99.90;;;;;;4992175;28;20219;-90
2022/06/22 08:36:29;;;;;;;13.45;5.40;;;22.40;99.90;;;;;;4976831;28;20189;-80
2022/06/22 08:39:10;;;;;;;21.92;5.53;;;22.50;99.90;;;;;;4976724;28;20194;-81
2022/06/22 08:41:40;;;;;;;25.33;5.35;;;22.40;99.90;;;;;;4976616;28;20174;-80
2022/06/22 08:44:23;;;;;;;7.80;4.88;;;22.60;99.90;;;;;;4975393;28;20649;-80
2022/06/22 08:47:14;;;;;;;14.63;4.82;;;22.60;99.90;;;;;;4976104;28;20181;-82
2022/06/22 08:50:04;;;;;;;30.27;7.03;;;22.50;99.90;;;;;;4999649;28;20194;-82
2022/06/22 08:52:45;;;;;;;4.45;3.95;;;22.30;99.90;;;;;;4999027;28;20665;-82
2022/06/22 08:55:31;;;;;;;20.98;5.32;;;22.40;99.90;;;;;;5002225;28;20180;-83
2022/06/22 08:58:29;;;;;;;14.82;5.25;;;22.60;99.90;;;;;;5000452;28;20223;-83
2022/06/22 09:01:01;;;;;;;18.33;4.55;;;22.80;99.90;;;;;;4998701;28;20173;-83
2022/06/22 09:03:47;;;;;;;17.98;5.10;;;22.80;99.90;;;;;;4989264;28;20158;-85
2022/06/22 09:06:51;;;;;;;9.93;3.30;;;22.90;99.90;;;;;;5007373;28;20253;-83
2022/06/22 09:09:27;;;;;;;10.05;5.05;;;22.80;99.90;;;;;;4991540;28;20615;-94
2022/06/22 09:12:08;;;;;;;8.32;3.75;;;22.80;99.90;;;;;;4983317;28;20221;-82
2022/06/22 09:14:36;;;;;;;9.65;4.45;;;22.90;99.90;;;;;;4982806;28;20177;-83
2022/06/22 09:17:03;;;;;;;11.68;4.50;;;23.10;99.90;;;;;;4990183;28;20169;-83
2022/06/22 09:19:56;;;;;;;18.40;4.07;;;23.30;99.90;;;;;;4988760;28;20157;-82
2022/06/22 09:22:50;;;;;;;15.25;3.75;;;23.30;99.90;;;;;;4982137;28;20154;-82
2022/06/22 09:26:10;;;;;;;53.38;8.35;;;23.00;99.90;;;;;;5004637;28;20240;-82
2022/06/22 09:28:50;;;;;;;9.68;4.10;;;23.00;99.90;;;;;;4995408;28;20213;-85
2022/06/22 09:31:39;;;;;;;15.32;4.50;;;23.00;99.90;;;;;;4987853;28;20218;-82
2022/06/22 09:34:27;;;;;;;4.25;3.40;;;23.00;99.90;;;;;;4993231;28;20168;-84
2022/06/22 09:37:23;;;;;;;9.05;3.40;;;23.20;99.90;;;;;;4977042;28;20178;-83
2022/06/22 09:40:02;;;;;;;28.30;5.38;;;23.20;99.90;;;;;;4990872;28;20611;-86
2022/06/22 09:42:27;;;;;;;8.32;3.55;;;23.10;99.90;;;;;;4990997;28;20178;-88
2022/06/22 09:45:36;;;;;;;9.18;4.07;;;23.30;99.90;;;;;;4990800;28;20170;-88
2022/06/22 09:48:07;;;;;;;6.80;4.15;;;23.10;99.90;;;;;;4981980;28;20686;-82
2022/06/22 09:50:48;;;;;;;7.72;3.70;;;23.40;99.90;;;;;;4975924;28;20205;-85
2022/06/22 09:53:16;;;;;;;14.15;3.78;;;23.60;99.90;;;;;;4976600;28;20170;-85
2022/06/22 09:58:47;;;;;;;7.40;3.80;;;23.60;99.90;;;;;;4975904;28;20197;-83
2022/06/22 10:01:27;;;;;;;5.32;3.50;;;23.70;99.90;;;;;;4977306;28;20165;-82
2022/06/22 10:04:08;;;;;;;7.32;3.90;;;23.70;99.90;;;;;;4977174;28;20177;-85
2022/06/22 10:06:47;;;;;;;10.77;3.38;;;23.80;99.90;;;;;;4975338;28;20174;-86
2022/06/22 10:09:27;;;;;;;15.07;3.83;;;24.10;99.90;;;;;;4976482;28;20186;-84
2022/06/22 10:12:28;;;;;;;7.95;3.80;;;24.10;99.90;;;;;;4990704;28;20701;-85
2022/06/22 10:15:11;;;;;;;5.72;3.15;;;24.10;99.90;;;;;;4976644;28;20170;-85
2022/06/22 10:18:08;;;;;;;5.57;3.15;;;24.20;99.90;;;;;;4978158;28;20200;-87
2022/06/22 10:20:57;;;;;;;7.50;3.33;;;24.20;99.90;;;;;;4977544;28;20177;-86
2022/06/22 10:24:00;;;;;;;12.95;4.35;;;24.20;99.90;;;;;;4978616;28;20194;-86
2022/06/22 10:26:50;;;;;;;8.73;3.10;;;24.20;99.90;;;;;;4990118;28;20189;-85
2022/06/22 10:29:26;;;;;;;5.95;3.38;;;24.10;99.90;;;;;;4991128;28;20248;-86
2022/06/22 10:32:16;;;;;;;6.93;3.20;;;23.90;99.90;;;;;;4990732;28;20220;-85
2022/06/22 10:35:06;;;;;;;9.57;3.58;;;23.90;99.90;;;;;;4991487;28;20173;-85
2022/06/22 10:37:35;;;;;;;7.20;2.75;;;24.20;99.90;;;;;;4974878;28;20198;-85
2022/06/22 10:45:08;;;;;;;10.57;3.15;;;24.50;99.90;;;;;;4990835;28;20276;-85
2022/06/22 10:46:00;;;;;;;7.50;3.08;;;24.60;99.90;;;;;;4975937;28;20177;-86
2022/06/22 10:48:52;;;;;;;22.50;4.18;;;24.70;99.90;;;;;;4975125;28;20285;-85
2022/06/22 10:51:21;;;;;;;5.00;2.83;;;24.80;99.90;;;;;;4974346;28;20216;-91
2022/06/22 10:54:01;;;;;;;12.80;3.30;;;24.80;99.90;;;;;;5007721;28;20166;-86
2022/06/22 10:56:36;;;;;;;54.95;5.20;;;24.90;99.90;;;;;;5013951;28;20154;-84
2022/06/22 10:59:26;;;;;;;4.55;2.80;;;24.90;99.90;;;;;;5013866;28;20181;-85
2022/06/22 11:02:01;;;;;;;6.45;2.95;;;25.10;99.90;;;;;;4991710;28;20188;-87
2022/06/22 11:04:48;;;;;;;32.72;3.55;;;24.90;99.90;;;;;;4991337;28;20256;-86
2022/06/22 11:07:35;;;;;;;7.25;2.65;;;25.00;99.90;;;;;;4990857;28;20280;-89
2022/06/22 11:10:39;;;;;;;16.45;4.32;;;25.10;99.90;;;;;;4990837;28;20178;-86
2022/06/22 11:13:37;;;;;;;4.55;2.83;;;25.20;99.90;;;;;;4976607;28;20180;-86
2022/06/22 11:16:21;;;;;;;43.28;4.00;;;25.00;99.90;;;;;;4992204;28;20186;-86
2022/06/22 11:19:32;;;;;;;8.35;2.65;;;25.00;99.90;;;;;;4978414;28;20332;-86
2022/06/22 11:22:22;;;;;;;7.22;3.42;;;24.90;99.90;;;;;;4974486;28;20178;-86
2022/06/22 11:30:48;;;;;;;6.05;2.78;;;25.10;99.90;;;;;;4979072;28;20165;-86
2022/06/22 11:31:14;;;;;;;6.03;2.95;;;25.10;99.90;;;;;;4980637;28;20224;-87
2022/06/22 11:34:21;;;;;;;4.35;2.40;;;25.00;99.90;;;;;;4984975;28;20172;-87
2022/06/22 11:37:26;;;;;;;9.82;3.25;;;24.90;99.90;;;;;;5129641;23;20331;-88
2022/06/22 11:40:19;;;;;;;8.80;3.42;;;25.00;99.90;;;;;;4959270;28;20183;-87
2022/06/22 11:43:08;;;;;;;11.63;2.45;;;24.90;99.90;;;;;;4960934;28;20309;-84
2022/06/22 11:45:56;;;;;;;28.73;20.67;;;25.10;99.90;;;;;;4973160;28;20174;-86
2022/06/22 11:48:40;;;;;;;14.35;3.28;;;25.30;99.90;;;;;;4959407;28;20281;-84
2022/06/22 11:51:13;;;;;;;17.52;11.10;;;25.30;99.90;;;;;;4958565;28;20304;-90
2022/06/22 11:54:09;;;;;;;11.98;3.90;;;25.30;99.90;;;;;;4958843;28;20457;-88
2022/06/22 11:57:01;;;;;;;12.38;6.30;;;25.40;99.90;;;;;;4993050;28;20181;-87
2022/06/22 11:59:46;;;;;;;18.55;4.00;;;25.60;99.90;;;;;;4975506;28;20182;-89
2022/06/22 12:02:54;;;;;;;10.90;2.47;;;25.70;99.90;;;;;;4960197;28;20186;-87
2022/06/22 12:06:01;;;;;;;12.40;4.85;;;25.70;99.90;;;;;;4978491;28;20171;-87
2022/06/22 12:08:50;;;;;;;6.63;2.42;;;25.50;99.60;;;;;;4998841;28;20233;-87
2022/06/22 12:11:16;;;;;;;4.45;2.60;;;25.60;99.90;;;;;;5002512;28;20189;-90
2022/06/22 12:16:47;;;;;;;3.53;1.90;;;25.50;99.90;;;;;;4966373;28;20174;-89
2022/06/22 12:19:44;;;;;;;8.18;2.65;;;25.50;99.90;;;;;;4981760;28;20198;-89
2022/06/22 12:22:27;;;;;;;3.67;1.90;;;25.60;99.30;;;;;;4963380;28;20182;-90
2022/06/22 12:25:08;;;;;;;7.68;1.92;;;25.50;99.50;;;;;;4959126;28;20178;-90
2022/06/22 12:27:43;;;;;;;7.03;1.85;;;25.60;99.50;;;;;;4975020;28;20202;-89
2022/06/22 12:30:32;;;;;;;3.63;2.97;;;25.60;99.90;;;;;;4974277;28;20185;-88
2022/06/22 12:33:04;;;;;;;11.25;1.80;;;25.60;99.00;;;;;;4958407;28;20261;-90
2022/06/22 12:35:51;;;;;;;2.83;1.90;;;25.70;97.70;;;;;;4973495;28;20171;-85
2022/06/22 12:38:36;;;;;;;8.43;1.80;;;25.70;97.90;;;;;;4956444;28;20268;-85
2022/06/22 12:41:46;;;;;;;3.58;2.00;;;25.70;97.60;;;;;;4958391;28;20170;-86
2022/06/22 12:44:46;;;;;;;16.58;1.67;;;25.80;97.10;;;;;;4981416;28;20171;-87
2022/06/22 12:47:32;;;;;;;2.63;1.42;;;25.80;96.70;;;;;;4962389;28;20473;-85
2022/06/22 12:50:28;;;;;;;4.10;1.67;;;25.90;97.10;;;;;;4963094;28;20173;-85
2022/06/22 12:53:15;;;;;;;2.92;1.75;;;26.00;98.40;;;;;;4961776;28;20201;-85
2022/06/22 12:55:50;;;;;;;8.70;2.13;;;26.10;97.30;;;;;;4972990;28;20710;-86
2022/06/22 12:58:22;;;;;;;20.70;2.35;;;26.20;97.00;;;;;;4957054;28;20194;-84
2022/06/22 13:00:49;;;;;;;3.83;1.55;;;26.10;96.60;;;;;;4957463;28;20546;-85
2022/06/22 13:03:18;;;;;;;3.67;1.48;;;26.10;96.50;;;;;;4971551;28;20178;-84
2022/06/22 13:05:44;;;;;;;18.50;2.47;;;26.20;96.40;;;;;;4972042;28;20201;-86
2022/06/22 13:08:17;;;;;;;11.43;1.25;;;26.30;96.70;;;;;;4971588;28;20186;-85
2022/06/22 13:10:46;;;;;;;22.27;1.88;;;26.30;96.20;;;;;;4956717;28;20245;-84
2022/06/22 13:13:22;;;;;;;6.90;1.20;;;26.30;95.80;;;;;;4971568;28;20174;-85
2022/06/22 13:15:56;;;;;;;2.58;1.20;;;26.40;95.90;;;;;;4971315;28;20171;-85
2022/06/22 13:18:25;;;;;;;5.82;1.30;;;26.40;95.30;;;;;;4956311;28;20234;-85
2022/06/22 13:20:56;;;;;;;15.05;2.08;;;26.40;95.10;;;;;;4956932;28;20241;-83
2022/06/22 13:23:40;;;;;;;10.25;1.10;;;26.40;94.80;;;;;;4970994;28;20701;-83
2022/06/22 13:26:35;;;;;;;5.20;1.58;;;26.30;96.00;;;;;;4956750;28;20201;-84
2022/06/22 13:29:20;;;;;;;2.25;1.40;;;26.40;95.10;;;;;;4943682;29;20732;-83
2022/06/22 13:31:49;;;;;;;12.43;2.10;;;26.50;95.30;;;;;;4956787;28;20258;-86
2022/06/22 13:34:26;;;;;;;4.25;1.73;;;26.60;95.30;;;;;;4965204;28;20640;-86
2022/06/22 13:37:16;;;;;;;12.23;1.60;;;26.50;94.80;;;;;;4953058;29;20327;-83
2022/06/22 13:40:09;;;;;;;2.58;1.17;;;26.60;94.70;;;;;;4937766;29;20206;-88
2022/06/22 13:43:03;;;;;;;1.63;1.00;;;26.60;94.40;;;;;;4936266;29;20171;-85
2022/06/22 13:45:51;;;;;;;5.90;1.50;;;26.70;93.80;;;;;;4936885;29;20262;-83
2022/06/22 13:48:19;;;;;;;4.40;1.30;;;26.70;94.00;;;;;;4953835;28;20260;-84
2022/06/22 13:51:14;;;;;;;1.70;1.15;;;26.60;94.70;;;;;;4937820;29;20234;-83
2022/06/22 13:54:13;;;;;;;2.65;0.93;;;26.60;94.00;;;;;;4937135;29;20164;-89
2022/06/22 13:56:48;;;;;;;6.97;1.10;;;26.80;94.40;;;;;;4936031;29;20176;-87
2022/06/22 13:59:27;;;;;;;4.85;1.50;;;26.80;93.70;;;;;;4935816;29;20810;-91